Terminal Aerodrome Forecast
Issued by NWS

Home | Current Version | Previous Version | Graphics & Text | Print | Product List | Glossary On
Versions: 1 2 3 4 5 6 7 8 9 10 11 12 13 14 15 16 17 18 19 20 21 22 23 24
593
FTUS43 KBIS 251420 AAA
TAFMOT
TAF AMD
KMOT 251420Z 2514/2612 29025G34KT P6SM BKN050
     FM251800 29026G37KT P6SM SCT070
     FM260000 30015G22KT P6SM SKC
     FM260300 29010KT P6SM SKC=

USA.gov is the U.S. government's official web portal to all federal, state and local government web resources and services.